Elk, WA (99009)

6:25 AM PST on January 31, 2015 (GMT -0800)
Deer Park | Change Station
CLOSE
Current Station
Airport
Location: Deer Park,
Elevation: 2205 ft
Nearby Weather Stations

Elev 2205 ft 47.97 °N, 117.42 °W | Updated 9 minutes ago

Overcast
Overcast
29 °F
Feels Like 29 °F
N
0
Wind Variable Wind from North

Today
High -- | Low -- °F
--% Chance of Precip.
Yesterday
High -- | Low -- °F
Precip. -- in
7:18 AM 4:47 PM
Waxing Gibbous, 90% visible
Pressure 30.24 in
Visibility 5.0 miles
Clouds Scattered Clouds 300 ft
Overcast 1500 ft
Dew Point 29 °F
Humidity 100%
Rainfall 0.00 in
Snow Depth Not available.
UV 0 out of 12
Pollen .40 out of 12
Air Quality Not available.
Flu Activity Not available.
SPECI KDEW 311416Z AUTO 00000KT 5SM BR SCT003 OVC015 M02/M02 A3024 RMK AO2 T10171017

More Conditions Fewer Conditions

Pressure 30.24 in
Visibility 5.0 miles
Clouds Scattered Clouds 300 ft
Overcast 1500 ft
Dew Point 29 °F
Humidity 100%
Rainfall 0.00 in
Snow Depth Not available.
UV 0 out of 12
Pollen .40 out of 12
Air Quality Not available.
Flu Activity Not available.
SPECI KDEW 311416Z AUTO 00000KT 5SM BR SCT003 OVC015 M02/M02 A3024 RMK AO2 T10171017

More Conditions Fewer Conditions

10-Day Weather Forecast

Almanac

Astronomy

Jan. 31, 2015 Rise Set
Actual Time
Civil Twilight
Nautical Twilight
Astronomical Twilight
Moon
Length of Visible Light
Length of Day
Tomorrow will be .
, % of the Moon is Illuminated

Today's Extremes

State Highs State Lows

Community

WunderPhotos

Upload Photos

1,792,058 photos uploaded!

WunderBlogs® & News

Nearby

Air Quality

  Air Quality AQ Index Pollutant
Not available.

Snow Depth

Station Depth Elevation

Earthquake Activity

City Distance Mag. Time & Date
Minimum magnitude displayed is 2.5.

Coastal Water Temperatures

Place Temperature

Nearby Weather Stations